Hutchinson Municipal Airport
KHUT : rendu visible

Aérodrome :











RETROUVEZ-NOUS SUR...

 
LOGIN :

S'inscrire | Disclaimer

   EN    FR    IT 

 









Légende :    VFR   VFR Marginal   IFR   IFR Intensif   IFR Très Intensif
Visi : 
Plafond : 
>= 8 km
>= 3000ft
5 à 8 km
1000 à 3000 ft
1500m à 5 km
500 à 1000 ft
800 à 1500m
200 à 500 ft
< 800m
< 200 ft
Symboles :   Orages  Brouillard  Fortes neiges  Fortes précipitations  Vent > 20 kt






- Altitude de l'aérodrome : 1543 ft


KHUT - Hutchinson Municipal

DERNIER METAR :
  • 200252Z 01003KT 10SM CLR M07/M11 A3057 RMK AO2 SLP366 T10671106 53009

METARs EXPIRÉS :
  • 200152Z 00000KT 10SM CLR M07/M11 A3056 RMK AO2 SLP365 T10721106
  • 200052Z 00000KT 10SM CLR M04/M11 A3054 RMK AO2 SLP355 T10391106

TAF KHUT
Valide du 20 à 00h jusqu'au 21 à 00h UTC


192332Z 2000/2024 09006KT P6SM BKN250



MET'MAP, la Météo Aéronautique d'un coup d'oeil ! - Copyright ORBIFLY Décembre 2007 - Disclaimer

ORBIFLY MET'MAP TEAM :

Programmation & Développement : Alexandra Zaïnal
Sur une idée originale de : Baudouin d'Aumeries
Assistance à la programmation : Marc-Olivier Méhu
Soutien technique & logistique : Manuel Goepfert

Contact : metmap@orbifly.com




SOURCES & CREDITS :

   NOAA       Earth
Advisory